Time;durP1;ratioP1;P1;durP2;ratioP2;P2;SDS_P1;SDS_P2;PMS_P1;PMS_P2;Temp;Humidity;BMP_temperature;BMP_pressure;BME280_temperature;BME280_humidity;BME280_pressure;Samples;Min_cycle;Max_cycle;Signal;HPM_P1;HPM_P2
2021/12/07 00:02:12;;;;;;;3.15;3.15;;;3.10;99.90;;;;;;4990600;28;20189;-90
2021/12/07 00:05:38;;;;;;;3.03;3.03;;;3.10;99.90;;;;;;4983348;28;20306;-89
2021/12/07 00:09:06;;;;;;;2.30;2.30;;;3.10;99.90;;;;;;4994514;28;20216;-89
2021/12/07 00:11:49;;;;;;;2.95;2.85;;;3.10;99.90;;;;;;5052908;23;20232;-82
2021/12/07 00:14:23;;;;;;;3.08;2.97;;;3.70;99.90;;;;;;4990533;28;20628;-80
2021/12/07 00:16:51;;;;;;;3.65;2.92;;;3.20;99.90;;;;;;4990017;28;20658;-81
2021/12/07 00:19:16;;;;;;;3.10;3.00;;;5.30;99.90;;;;;;4983317;28;20445;-81
2021/12/07 00:21:43;;;;;;;3.40;3.30;;;3.20;99.90;;;;;;4974586;28;20222;-80
2021/12/07 00:24:11;;;;;;;3.25;3.15;;;3.20;99.90;;;;;;4978950;28;20283;-81
2021/12/07 00:26:38;;;;;;;2.97;2.88;;;3.10;99.90;;;;;;4995694;28;20291;-80
2021/12/07 00:29:05;;;;;;;3.03;2.92;;;2.80;99.90;;;;;;5001774;28;20658;-81
2021/12/07 00:31:39;;;;;;;2.03;2.03;;;3.20;99.90;;;;;;4975179;28;20203;-81
2021/12/07 00:36:36;;;;;;;2.72;2.72;;;2.80;99.90;;;;;;5004586;28;20288;-81
2021/12/07 00:39:05;;;;;;;2.78;2.72;;;2.80;99.90;;;;;;4986569;28;20611;-80
2021/12/07 00:41:31;;;;;;;3.17;3.08;;;2.90;99.90;;;;;;4965128;28;20289;-81
2021/12/07 00:43:57;;;;;;;3.50;3.40;;;2.80;99.90;;;;;;4989524;28;20698;-81
2021/12/07 00:46:25;;;;;;;3.70;3.47;;;2.90;99.90;;;;;;4971312;28;20472;-82
2021/12/07 00:48:51;;;;;;;4.30;4.20;;;2.20;99.90;;;;;;4986988;28;20296;-80
2021/12/07 00:51:17;;;;;;;4.80;4.60;;;2.90;99.90;;;;;;4970697;28;20214;-81
2021/12/07 00:53:42;;;;;;;4.63;4.43;;;2.70;99.90;;;;;;4981446;28;20280;-82
2021/12/07 00:56:08;;;;;;;4.47;4.27;;;2.90;99.90;;;;;;4979078;28;20200;-81
2021/12/07 00:58:34;;;;;;;5.43;5.10;;;1.90;99.90;;;;;;4978368;28;20189;-81
2021/12/07 01:01:03;;;;;;;5.70;5.40;;;2.60;99.90;;;;;;4964502;28;20202;-82
2021/12/07 01:03:35;;;;;;;7.70;7.10;;;2.90;99.90;;;;;;4995208;28;20169;-81
2021/12/07 01:25:00;;;;;;;8.77;7.97;;;3.10;99.90;;;;;;4996225;28;20270;-82
2021/12/07 01:27:26;;;;;;;7.90;7.30;;;2.60;99.90;;;;;;4972719;28;20275;-83
2021/12/07 01:30:19;;;;;;;8.30;7.60;;;2.50;99.90;;;;;;4981465;28;20184;-82
2021/12/07 01:39:27;;;;;;;6.93;6.28;;;2.40;99.90;;;;;;4998733;28;20666;-81
2021/12/07 01:53:16;;;;;;;11.40;9.57;;;2.40;99.90;;;;;;4981211;28;20193;-81
2021/12/07 02:01:07;;;;;;;10.95;9.75;;;2.60;99.90;;;;;;4996340;28;20201;-81
2021/12/07 02:03:34;;;;;;;10.68;9.63;;;2.00;99.90;;;;;;4979766;28;20193;-82
2021/12/07 02:06:00;;;;;;;11.82;10.38;;;5.00;99.90;;;;;;4986924;28;20259;-82
2021/12/07 02:08:25;;;;;;;11.83;10.63;;;2.00;99.90;;;;;;4976837;28;20807;-80
2021/12/07 02:11:06;;;;;;;13.50;10.63;;;1.90;99.90;;;;;;4990996;28;20316;-81
2021/12/07 02:15:58;;;;;;;12.88;9.73;;;2.00;99.90;;;;;;4983904;28;20192;-80
2021/12/07 02:18:24;;;;;;;11.10;9.90;;;2.10;99.90;;;;;;4994067;28;20189;-81
2021/12/07 02:20:50;;;;;;;10.40;9.33;;;2.10;99.90;;;;;;4966851;28;20289;-81
2021/12/07 02:23:17;;;;;;;9.55;8.10;;;1.40;99.90;;;;;;4967883;28;20414;-81
2021/12/07 02:25:43;;;;;;;12.77;9.52;;;2.10;99.90;;;;;;4975825;28;20194;-81
2021/12/07 02:28:14;;;;;;;11.80;10.60;;;2.20;99.90;;;;;;4984684;28;20295;-80
2021/12/07 02:30:41;;;;;;;13.77;9.85;;;2.50;99.90;;;;;;4971405;28;20303;-80
2021/12/07 02:33:06;;;;;;;14.23;11.63;;;4.30;99.90;;;;;;4967897;28;20642;-81
2021/12/07 02:35:32;;;;;;;16.73;13.47;;;2.80;99.90;;;;;;4983717;28;20681;-81
2021/12/07 02:37:59;;;;;;;15.07;12.10;;;2.30;99.90;;;;;;4985290;28;20507;-80
2021/12/07 02:40:25;;;;;;;12.75;10.32;;;2.50;99.90;;;;;;4983202;28;20259;-81
2021/12/07 02:42:51;;;;;;;14.98;12.35;;;;;;;;;;4985415;28;20533;-80
2021/12/07 02:45:18;;;;;;;18.13;13.68;;;2.70;99.90;;;;;;4970582;28;20193;-81
2021/12/07 02:47:45;;;;;;;24.65;15.90;;;2.70;99.90;;;;;;4948485;28;20240;-81
2021/12/07 02:50:20;;;;;;;18.77;15.20;;;2.80;99.90;;;;;;4965198;28;20451;-80
2021/12/07 02:52:46;;;;;;;21.33;14.68;;;2.70;99.90;;;;;;4967204;28;20185;-81
2021/12/07 02:55:13;;;;;;;18.60;13.87;;;2.80;99.90;;;;;;4982547;28;20538;-81
2021/12/07 02:57:38;;;;;;;19.23;15.15;;;2.50;99.90;;;;;;4985106;28;20191;-81
2021/12/07 03:00:13;;;;;;;21.57;15.07;;;2.90;99.90;;;;;;4983933;28;20266;-81
2021/12/07 03:02:47;;;;;;;18.75;15.05;;;3.10;99.90;;;;;;4993051;28;20234;-83
2021/12/07 03:05:28;;;;;;;19.48;14.40;;;3.10;99.90;;;;;;4985371;28;20193;-80
2021/12/07 03:26:38;;;;;;;21.95;16.45;;;3.40;99.90;;;;;;4987837;28;20226;-81
2021/12/07 03:29:04;;;;;;;30.07;14.77;;;4.00;99.90;;;;;;5000524;28;20180;-81
2021/12/07 03:31:30;;;;;;;21.42;14.63;;;3.70;99.90;;;;;;4999080;28;20200;-81
2021/12/07 03:33:58;;;;;;;28.83;16.67;;;3.50;99.90;;;;;;4991103;28;20630;-81
2021/12/07 03:36:26;;;;;;;20.75;14.23;;;3.30;99.90;;;;;;4987122;28;20201;-80
2021/12/07 03:38:52;;;;;;;29.98;14.70;;;3.30;99.90;;;;;;4982493;28;20192;-80
2021/12/07 03:41:19;;;;;;;17.27;12.45;;;3.70;99.90;;;;;;4969793;28;20610;-80
2021/12/07 03:43:45;;;;;;;18.80;12.45;;;3.80;99.90;;;;;;4983005;28;20208;-80
2021/12/07 03:46:11;;;;;;;18.93;11.83;;;3.80;99.90;;;;;;4987686;28;20189;-81
2021/12/07 03:48:37;;;;;;;16.23;13.30;;;3.60;99.90;;;;;;4996837;28;20192;-80
2021/12/07 03:51:04;;;;;;;18.67;12.05;;;3.90;99.90;;;;;;4990100;28;20439;-80
2021/12/07 03:53:30;;;;;;;24.35;13.82;;;5.60;99.90;;;;;;4962507;28;20310;-81
2021/12/07 03:55:57;;;;;;;19.77;12.30;;;3.10;99.90;;;;;;4971957;28;20498;-81
2021/12/07 03:58:23;;;;;;;19.15;13.50;;;3.70;99.90;;;;;;4978937;28;20189;-81
2021/12/07 04:00:48;;;;;;;14.02;12.48;;;4.30;99.90;;;;;;4994827;28;20185;-80
2021/12/07 04:03:17;;;;;;;16.10;11.80;;;4.00;99.90;;;;;;4993682;28;20569;-80
2021/12/07 04:05:52;;;;;;;16.52;11.00;;;5.20;99.90;;;;;;4970079;28;20276;-81
2021/12/07 04:08:27;;;;;;;19.80;12.40;;;5.60;99.90;;;;;;4981309;28;20282;-80
2021/12/07 04:10:55;;;;;;;16.27;11.75;;;4.00;99.90;;;;;;4989580;28;20227;-81
2021/12/07 04:13:21;;;;;;;22.65;15.07;;;4.20;99.90;;;;;;4971781;28;20178;-81
2021/12/07 04:15:46;;;;;;;22.15;15.93;;;3.60;99.90;;;;;;4989174;28;20285;-81
2021/12/07 04:18:13;;;;;;;23.23;14.97;;;5.30;99.90;;;;;;4994372;28;20201;-80
2021/12/07 04:20:39;;;;;;;26.50;14.43;;;3.90;99.90;;;;;;4996654;28;20591;-80
2021/12/07 04:23:06;;;;;;;24.50;16.15;;;4.00;99.90;;;;;;5000750;28;20197;-80
2021/12/07 04:25:32;;;;;;;23.90;15.77;;;4.10;99.90;;;;;;4978887;28;20373;-81
2021/12/07 04:27:58;;;;;;;19.70;13.67;;;3.80;99.90;;;;;;5002411;28;20208;-77
2021/12/07 04:30:30;;;;;;;25.20;16.40;;;4.10;99.90;;;;;;4991360;28;20454;-81
2021/12/07 04:32:57;;;;;;;29.50;20.33;;;4.30;99.90;;;;;;5005982;28;20470;-80
2021/12/07 04:35:23;;;;;;;28.02;17.25;;;4.20;99.90;;;;;;5000154;28;20276;-81
2021/12/07 04:37:50;;;;;;;33.67;19.60;;;4.20;99.90;;;;;;4994691;28;20272;-81
2021/12/07 04:40:22;;;;;;;28.45;16.25;;;4.40;99.90;;;;;;4986093;28;20440;-80
2021/12/07 04:42:48;;;;;;;27.27;15.52;;;4.20;99.90;;;;;;5002891;28;20287;-80
2021/12/07 04:46:04;;;;;;;27.30;14.35;;;3.90;99.90;;;;;;4986529;28;20189;-81
2021/12/07 04:58:49;;;;;;;24.83;17.25;;;4.20;99.90;;;;;;4986112;28;20223;-82
2021/12/07 05:01:15;;;;;;;22.90;16.63;;;4.30;99.90;;;;;;4984877;28;20189;-80
2021/12/07 05:03:42;;;;;;;30.63;17.63;;;4.00;99.90;;;;;;4968815;28;20379;-81
2021/12/07 05:06:10;;;;;;;26.40;16.70;;;4.10;99.90;;;;;;4977587;28;20228;-81
2021/12/07 05:13:38;;;;;;;28.05;18.20;;;3.50;99.90;;;;;;4982070;28;20210;-81
2021/12/07 05:18:54;;;;;;;22.13;13.77;;;4.50;99.90;;;;;;4986810;28;20783;-81
2021/12/07 05:24:12;;;;;;;23.65;13.95;;;3.30;99.90;;;;;;4998492;28;20200;-81
2021/12/07 05:37:47;;;;;;;24.10;14.75;;;4.20;99.90;;;;;;4982816;28;20208;-80
2021/12/07 05:40:27;;;;;;;24.70;14.05;;;4.20;99.90;;;;;;4990231;28;20288;-82
2021/12/07 05:42:53;;;;;;;16.10;10.55;;;4.60;99.90;;;;;;4991617;28;20172;-81
2021/12/07 05:45:23;;;;;;;25.05;13.55;;;4.60;99.90;;;;;;4968988;28;20201;-81
2021/12/07 05:47:49;;;;;;;27.45;14.10;;;4.40;99.90;;;;;;4998842;28;20570;-81
2021/12/07 05:50:20;;;;;;;20.73;12.03;;;4.40;99.90;;;;;;4973974;28;20216;-81
2021/12/07 05:52:46;;;;;;;29.77;11.48;;;4.40;99.90;;;;;;4997478;28;20772;-82
2021/12/07 05:55:12;;;;;;;33.77;12.73;;;4.20;99.90;;;;;;4995190;28;20232;-77
2021/12/07 05:57:38;;;;;;;47.17;12.55;;;4.30;99.90;;;;;;4969916;28;20417;-77
2021/12/07 06:00:09;;;;;;;25.92;11.40;;;4.40;99.90;;;;;;4993121;28;20199;-82
2021/12/07 06:02:35;;;;;;;15.60;9.50;;;4.40;99.90;;;;;;4279809;28;10000559;-80
2021/12/07 06:05:01;;;;;;;21.07;9.77;;;4.50;99.90;;;;;;4968431;28;20372;-81
2021/12/07 06:07:26;;;;;;;19.70;10.93;;;4.90;99.90;;;;;;4951985;28;20300;-82
2021/12/07 06:09:52;;;;;;;25.23;10.00;;;4.40;99.90;;;;;;4976345;28;20443;-80
2021/12/07 06:12:17;;;;;;;22.53;11.17;;;4.00;99.90;;;;;;4977312;28;20587;-82
2021/12/07 06:14:44;;;;;;;15.73;8.77;;;4.80;99.90;;;;;;4977335;28;20193;-82
2021/12/07 06:17:11;;;;;;;16.48;9.68;;;4.30;99.90;;;;;;4955565;28;20292;-82
2021/12/07 06:19:37;;;;;;;19.65;10.57;;;5.30;99.90;;;;;;4978456;28;20205;-82
2021/12/07 06:22:03;;;;;;;15.73;10.67;;;4.20;99.90;;;;;;4963223;28;20620;-81
2021/12/07 06:24:29;;;;;;;19.23;9.32;;;4.30;99.90;;;;;;4986318;28;20196;-82
2021/12/07 06:26:55;;;;;;;12.90;9.70;;;4.20;99.90;;;;;;4967409;28;20218;-82
2021/12/07 06:29:20;;;;;;;19.77;10.13;;;4.00;99.90;;;;;;4973640;28;20635;-80
2021/12/07 06:31:46;;;;;;;20.83;9.07;;;4.70;99.90;;;;;;4972030;28;20247;-80
2021/12/07 06:34:12;;;;;;;19.80;9.40;;;4.60;99.90;;;;;;4978750;28;20194;-81
2021/12/07 06:36:39;;;;;;;21.30;8.87;;;4.10;99.90;;;;;;4982412;28;20444;-83
2021/12/07 06:39:07;;;;;;;17.73;8.90;;;5.90;99.90;;;;;;4973047;28;20220;-81
2021/12/07 06:41:33;;;;;;;15.13;8.50;;;5.70;99.90;;;;;;4975910;28;20197;-79
2021/12/07 06:43:58;;;;;;;13.52;7.15;;;4.60;99.90;;;;;;4988557;28;20196;-81
2021/12/07 06:46:24;;;;;;;13.10;8.40;;;5.10;99.90;;;;;;4968886;28;20728;-80
2021/12/07 06:48:50;;;;;;;13.77;5.63;;;5.30;99.90;;;;;;4958253;28;20198;-81
2021/12/07 06:51:16;;;;;;;10.80;7.77;;;4.50;99.90;;;;;;4973370;28;20189;-81
2021/12/07 06:53:41;;;;;;;19.17;8.10;;;4.50;99.90;;;;;;4975467;28;20621;-82
2021/12/07 06:56:09;;;;;;;18.57;8.37;;;4.00;99.90;;;;;;4991303;28;20189;-81
2021/12/07 06:58:36;;;;;;;16.55;8.23;;;3.40;99.90;;;;;;4978525;28;20225;-81
2021/12/07 07:01:06;;;;;;;17.63;8.07;;;4.30;99.90;;;;;;4991546;28;20647;-81
2021/12/07 07:03:35;;;;;;;15.05;7.30;;;3.90;99.90;;;;;;4976693;28;20609;-82
2021/12/07 07:06:02;;;;;;;9.73;6.95;;;4.40;99.90;;;;;;4989487;28;20185;-82
2021/12/07 07:08:27;;;;;;;10.98;8.15;;;4.50;99.90;;;;;;4968443;28;20213;-80
2021/12/07 07:10:53;;;;;;;21.23;9.13;;;5.80;99.90;;;;;;4975167;28;20695;-81
2021/12/07 07:13:19;;;;;;;14.50;9.60;;;4.40;99.90;;;;;;4994339;28;20212;-81
2021/12/07 07:15:45;;;;;;;17.47;9.47;;;4.40;99.90;;;;;;4991898;28;20181;-81
2021/12/07 07:18:38;;;;;;;16.55;8.18;;;4.40;99.90;;;;;;4975376;28;20227;-82
2021/12/07 07:21:04;;;;;;;13.63;8.35;;;4.40;99.90;;;;;;4972321;28;20271;-81
2021/12/07 07:23:30;;;;;;;16.10;9.82;;;4.70;99.90;;;;;;4969564;28;20216;-82
2021/12/07 07:25:56;;;;;;;17.73;9.65;;;4.30;99.90;;;;;;4971991;28;20189;-82
2021/12/07 07:28:28;;;;;;;22.20;10.43;;;4.40;99.90;;;;;;4985402;28;20224;-81
2021/12/07 07:30:55;;;;;;;13.70;7.70;;;4.70;99.90;;;;;;4996419;28;20200;-80
2021/12/07 07:33:21;;;;;;;16.23;8.35;;;4.50;99.90;;;;;;4982706;28;20201;-81
2021/12/07 07:35:47;;;;;;;17.30;9.80;;;4.20;99.90;;;;;;4976605;28;20605;-81
2021/12/07 07:38:14;;;;;;;16.38;8.88;;;4.20;99.90;;;;;;4988625;28;20443;-82
2021/12/07 07:40:45;;;;;;;14.88;9.95;;;4.40;99.90;;;;;;4993598;28;20200;-82
2021/12/07 07:43:13;;;;;;;21.45;8.65;;;4.30;99.90;;;;;;5004584;28;20243;-81
2021/12/07 07:45:39;;;;;;;20.23;9.60;;;4.30;99.90;;;;;;4996249;28;20194;-80
2021/12/07 07:48:05;;;;;;;16.80;9.90;;;4.20;99.90;;;;;;4984980;28;20223;-82
2021/12/07 07:50:31;;;;;;;9.40;8.40;;;4.10;99.90;;;;;;4968612;28;20452;-81
2021/12/07 07:52:56;;;;;;;18.07;8.57;;;4.10;99.90;;;;;;4986990;28;20420;-79
2021/12/07 07:55:22;;;;;;;11.40;6.40;;;4.90;99.90;;;;;;4987878;28;20853;-80
2021/12/07 07:57:48;;;;;;;21.57;8.50;;;4.60;99.90;;;;;;4986915;28;20208;-81
2021/12/07 08:00:18;;;;;;;10.90;6.00;;;4.40;99.90;;;;;;4970094;28;20185;-81
2021/12/07 08:02:44;;;;;;;12.55;7.68;;;3.90;99.90;;;;;;4966675;28;20452;-81
2021/12/07 08:05:11;;;;;;;10.00;7.90;;;4.00;99.90;;;;;;4987561;28;20193;-82
2021/12/07 08:07:36;;;;;;;11.23;8.32;;;4.30;99.90;;;;;;4983304;28;20276;-79
2021/12/07 08:10:05;;;;;;;15.53;9.90;;;4.30;99.90;;;;;;4964377;28;20209;-78
2021/12/07 08:12:31;;;;;;;12.27;8.85;;;4.40;99.90;;;;;;4977595;28;20610;-81
2021/12/07 08:14:56;;;;;;;15.17;10.07;;;4.50;99.90;;;;;;4986398;28;20260;-81
2021/12/07 08:17:22;;;;;;;12.07;8.80;;;4.30;99.90;;;;;;4985740;28;20201;-81
2021/12/07 08:19:49;;;;;;;15.60;9.50;;;5.20;99.90;;;;;;4989016;28;20757;-81
2021/12/07 08:22:14;;;;;;;25.17;10.98;;;5.90;99.90;;;;;;4986427;28;20390;-82
2021/12/07 08:24:40;;;;;;;17.85;9.65;;;5.00;99.90;;;;;;4640649;28;9999836;-80
2021/12/07 08:27:06;;;;;;;13.43;7.50;;;4.30;99.90;;;;;;4980352;28;20227;-81
2021/12/07 08:29:34;;;;;;;13.20;8.40;;;4.70;99.90;;;;;;4982120;28;20200;-80
2021/12/07 08:32:00;;;;;;;13.45;8.27;;;4.70;99.90;;;;;;4983083;28;20196;-80
2021/12/07 08:34:28;;;;;;;9.37;8.20;;;4.40;99.90;;;;;;4977927;28;20198;-81
2021/12/07 08:36:54;;;;;;;14.88;8.35;;;5.30;99.90;;;;;;4982093;28;20193;-79
2021/12/07 08:39:20;;;;;;;10.77;6.90;;;4.40;99.90;;;;;;4965247;28;20196;-79
2021/12/07 08:41:45;;;;;;;11.70;7.93;;;4.10;99.90;;;;;;4964815;28;20205;-80
2021/12/07 08:44:11;;;;;;;5.93;5.37;;;4.40;99.90;;;;;;4979688;28;20193;-78
2021/12/07 08:46:38;;;;;;;9.63;7.97;;;4.90;99.90;;;;;;4974756;28;20252;-80
2021/12/07 08:49:09;;;;;;;14.60;7.35;;;4.90;99.90;;;;;;4978130;28;20200;-79
2021/12/07 08:51:38;;;;;;;8.48;5.80;;;4.60;99.90;;;;;;4961700;28;20273;-78
2021/12/07 08:54:22;;;;;;;15.55;7.28;;;5.00;99.90;;;;;;4979103;28;20606;-79
2021/12/07 08:59:44;;;;;;;15.75;6.65;;;4.90;99.90;;;;;;4994821;28;20466;-80
2021/12/07 09:02:15;;;;;;;17.38;5.65;;;5.00;99.90;;;;;;5000333;28;20523;-79
2021/12/07 09:04:47;;;;;;;9.65;5.95;;;4.70;99.90;;;;;;4976551;28;20205;-83
2021/12/07 09:07:13;;;;;;;16.55;9.20;;;5.40;99.90;;;;;;4972710;28;20208;-79
2021/12/07 09:09:42;;;;;;;11.98;6.18;;;5.40;99.90;;;;;;4981883;28;20185;-79
2021/12/07 09:12:12;;;;;;;24.88;13.38;;;5.80;99.90;;;;;;4972459;28;20232;-79
2021/12/07 09:14:53;;;;;;;7.25;4.85;;;5.10;99.90;;;;;;4965911;28;20227;-79
2021/12/07 09:17:24;;;;;;;14.15;5.97;;;5.60;99.90;;;;;;4977293;28;20193;-79
2021/12/07 09:19:52;;;;;;;10.90;5.38;;;5.10;99.90;;;;;;4973488;28;20563;-79
2021/12/07 09:22:19;;;;;;;6.50;5.38;;;4.90;99.90;;;;;;4987993;28;20192;-80
2021/12/07 09:24:48;;;;;;;8.07;5.60;;;;;;;;;;4983502;28;20685;-79
2021/12/07 09:27:16;;;;;;;5.25;4.75;;;5.20;99.90;;;;;;4997179;28;20220;-81
2021/12/07 09:29:42;;;;;;;6.38;3.88;;;5.10;99.90;;;;;;4974234;28;20722;-79
2021/12/07 09:32:08;;;;;;;12.33;4.77;;;5.00;99.90;;;;;;4987854;28;20193;-78
2021/12/07 09:34:36;;;;;;;15.87;6.00;;;4.90;99.90;;;;;;4639485;28;10000639;-80
2021/12/07 09:37:02;;;;;;;15.85;5.70;;;4.90;99.90;;;;;;4994652;28;20203;-79
2021/12/07 09:39:30;;;;;;;6.70;3.80;;;5.20;99.90;;;;;;4972147;28;20192;-79
2021/12/07 09:41:56;;;;;;;5.60;4.25;;;;;;;;;;4985730;28;20517;-77
2021/12/07 09:44:23;;;;;;;10.10;4.40;;;5.60;99.90;;;;;;4979579;28;20590;-75
2021/12/07 09:46:52;;;;;;;8.70;3.75;;;5.80;99.90;;;;;;4995776;28;20840;-79
2021/12/07 09:49:20;;;;;;;8.25;5.13;;;6.00;99.90;;;;;;4983705;28;20247;-80
2021/12/07 09:51:46;;;;;;;11.13;4.30;;;5.40;99.90;;;;;;4980011;28;20525;-83
2021/12/07 09:54:12;;;;;;;15.00;5.77;;;6.10;99.90;;;;;;4964241;28;20540;-81
2021/12/07 09:56:38;;;;;;;8.70;4.15;;;5.80;99.90;;;;;;4962248;28;20223;-81
2021/12/07 09:59:08;;;;;;;11.55;3.90;;;5.80;99.90;;;;;;4983769;28;20236;-80
2021/12/07 10:01:41;;;;;;;8.98;4.50;;;5.80;99.90;;;;;;5000283;28;20187;-81
2021/12/07 10:04:13;;;;;;;5.03;3.53;;;5.70;99.90;;;;;;4988188;28;20259;-83
2021/12/07 10:06:43;;;;;;;9.82;5.28;;;5.80;99.90;;;;;;4977226;28;20688;-82
2021/12/07 10:09:09;;;;;;;13.50;3.55;;;;;;;;;;4982144;28;20523;-79
2021/12/07 10:11:41;;;;;;;7.82;4.30;;;5.80;99.90;;;;;;4963986;28;20217;-80
2021/12/07 10:14:07;;;;;;;8.93;3.45;;;;;;;;;;4982662;28;20196;-80
2021/12/07 10:16:45;;;;;;;10.02;3.78;;;5.90;99.90;;;;;;4963025;28;20444;-80
2021/12/07 10:19:15;;;;;;;7.43;4.20;;;;;;;;;;4964271;28;20626;-79
2021/12/07 10:21:42;;;;;;;6.18;3.72;;;6.00;99.90;;;;;;4981390;28;20196;-80
2021/12/07 10:24:11;;;;;;;10.00;4.60;;;6.30;99.90;;;;;;4959560;28;20701;-80
2021/12/07 10:26:42;;;;;;;9.10;3.33;;;6.40;99.90;;;;;;4975064;28;20228;-73
2021/12/07 10:29:22;;;;;;;8.68;4.13;;;6.30;99.90;;;;;;4977333;28;20201;-80
2021/12/07 10:32:07;;;;;;;9.25;4.60;;;6.30;99.90;;;;;;4963616;28;20557;-81
2021/12/07 10:34:43;;;;;;;13.90;4.47;;;6.50;99.90;;;;;;4978500;28;20180;-81
2021/12/07 10:37:20;;;;;;;9.30;5.70;;;7.00;99.90;;;;;;4964536;28;20813;-82
2021/12/07 10:39:55;;;;;;;5.88;2.90;;;7.60;99.90;;;;;;4982321;28;20184;-81
2021/12/07 10:42:24;;;;;;;9.80;4.38;;;9.00;99.90;;;;;;4982142;28;20466;-81
2021/12/07 10:44:50;;;;;;;4.13;2.83;;;8.30;99.90;;;;;;4964778;28;20197;-79
2021/12/07 10:47:19;;;;;;;3.92;3.10;;;8.40;99.90;;;;;;4982652;28;20220;-80
2021/12/07 10:50:04;;;;;;;6.05;3.40;;;8.80;99.90;;;;;;4984587;28;20531;-80
2021/12/07 10:52:38;;;;;;;4.20;3.22;;;9.00;99.90;;;;;;4983845;28;20192;-84
2021/12/07 10:55:21;;;;;;;5.90;5.40;;;9.40;99.90;;;;;;4984872;28;20491;-84
2021/12/07 10:57:58;;;;;;;10.80;4.23;;;9.00;99.90;;;;;;4966999;28;20205;-81
2021/12/07 11:00:28;;;;;;;8.70;3.70;;;9.40;99.90;;;;;;4970154;28;20415;-86
2021/12/07 11:03:01;;;;;;;7.30;3.50;;;10.00;99.90;;;;;;4988670;28;20766;-85
2021/12/07 11:05:35;;;;;;;9.80;3.97;;;10.40;99.90;;;;;;4964837;28;20979;-86
2021/12/07 11:08:15;;;;;;;9.87;4.20;;;10.70;99.90;;;;;;4973049;28;20483;-85
2021/12/07 11:10:47;;;;;;;7.10;3.80;;;11.80;99.90;;;;;;4981118;28;20452;-84
2021/12/07 11:13:33;;;;;;;7.83;3.87;;;11.70;99.90;;;;;;4969432;28;20432;-84
2021/12/07 11:16:04;;;;;;;10.30;3.60;;;12.40;99.80;;;;;;4653971;28;10000248;-88
2021/12/07 11:18:35;;;;;;;9.37;3.83;;;12.50;99.30;;;;;;4992740;28;20209;-85
2021/12/07 11:21:09;;;;;;;3.87;3.37;;;12.70;97.70;;;;;;4958262;28;20441;-82
2021/12/07 11:23:48;;;;;;;6.43;4.03;;;12.70;98.40;;;;;;4985712;28;20618;-84
2021/12/07 11:31:57;;;;;;;6.93;4.60;;;14.10;92.20;;;;;;4904447;29;20447;-88
2021/12/07 11:34:39;;;;;;;4.30;3.33;;;13.80;92.50;;;;;;4964205;28;20443;-82
2021/12/07 11:37:10;;;;;;;6.93;4.60;;;14.90;92.10;;;;;;4990264;28;20417;-88
2021/12/07 11:39:50;;;;;;;6.27;4.10;;;13.40;93.30;;;;;;4985284;28;20443;-85
2021/12/07 11:42:20;;;;;;;7.20;3.93;;;14.90;93.60;;;;;;4989996;28;20424;-82
2021/12/07 11:45:02;;;;;;;3.23;3.00;;;13.40;92.60;;;;;;4974121;28;20492;-84
2021/12/07 11:47:40;;;;;;;5.27;3.97;;;13.20;95.00;;;;;;4993084;28;20839;-88
2021/12/07 11:50:23;;;;;;;7.10;4.27;;;13.00;94.60;;;;;;4998980;28;20436;-87
2021/12/07 11:52:53;;;;;;;7.72;3.98;;;13.00;96.00;;;;;;4646064;28;10001282;-83
2021/12/07 11:55:20;;;;;;;7.20;3.80;;;11.30;99.90;;;;;;4970411;28;20490;-82
2021/12/07 11:57:46;;;;;;;5.60;2.87;;;10.50;99.90;;;;;;4982196;28;20432;-81
2021/12/07 12:00:22;;;;;;;11.23;8.63;;;11.30;99.90;;;;;;4973343;28;20434;-83
2021/12/07 12:02:48;;;;;;;14.43;6.30;;;11.10;99.90;;;;;;4974165;28;20529;-82
2021/12/07 12:05:15;;;;;;;5.33;3.87;;;14.20;99.90;;;;;;4970110;28;20488;-83
2021/12/07 12:07:44;;;;;;;4.27;3.47;;;13.80;99.90;;;;;;4982646;28;20483;-81
2021/12/07 12:10:12;;;;;;;9.20;3.80;;;12.70;99.10;;;;;;4979959;28;21170;-83
2021/12/07 12:13:08;;;;;;;9.03;4.07;;;13.50;97.90;;;;;;4983220;28;20467;-79
2021/12/07 12:15:55;;;;;;;5.67;4.13;;;12.80;94.70;;;;;;4984481;28;20483;-81
2021/12/07 12:18:32;;;;;;;3.87;3.50;;;12.70;95.00;;;;;;4965416;28;20424;-82
2021/12/07 12:21:19;;;;;;;8.80;5.13;;;12.70;94.90;;;;;;4967280;28;20465;-81
2021/12/07 12:24:22;;;;;;;7.50;4.37;;;12.90;95.50;;;;;;4983293;28;20428;-80
2021/12/07 12:26:49;;;;;;;4.03;3.27;;;13.20;93.30;;;;;;4953908;28;20491;-80
2021/12/07 12:29:20;;;;;;;7.23;3.60;;;14.40;95.30;;;;;;4967868;28;20956;-82
2021/12/07 12:31:58;;;;;;;4.47;3.20;;;13.00;94.70;;;;;;4961660;28;20797;-82
2021/12/07 12:34:25;;;;;;;12.30;5.13;;;13.80;96.60;;;;;;4980976;28;20452;-81
2021/12/07 12:36:58;;;;;;;15.97;4.03;;;13.30;96.00;;;;;;4980980;28;20439;-81
2021/12/07 12:39:47;;;;;;;5.23;3.37;;;12.80;95.80;;;;;;4963174;28;20459;-80
2021/12/07 12:42:25;;;;;;;3.97;3.37;;;12.80;94.00;;;;;;4982409;28;20436;-80
2021/12/07 12:44:57;;;;;;;4.73;3.00;;;13.80;92.70;;;;;;4962556;28;20559;-82
2021/12/07 12:47:28;;;;;;;3.33;2.40;;;13.70;89.30;;;;;;4979745;28;21044;-81
2021/12/07 12:50:08;;;;;;;4.03;2.97;;;12.40;83.60;;;;;;4979737;28;20506;-81
2021/12/07 12:52:52;;;;;;;3.07;2.87;;;12.80;89.90;;;;;;4983840;28;20443;-82
2021/12/07 12:55:41;;;;;;;4.70;2.60;;;13.00;93.00;;;;;;4950036;28;20441;-81
2021/12/07 12:58:12;;;;;;;8.70;3.47;;;12.40;91.00;;;;;;4950923;28;20776;-82
2021/12/07 13:01:28;;;;;;;5.43;2.87;;;12.20;91.70;;;;;;4964600;28;20455;-81
2021/12/07 13:04:21;;;;;;;5.03;3.20;;;12.00;93.40;;;;;;4897142;29;20448;-80
2021/12/07 13:06:54;;;;;;;15.87;2.77;;;11.90;93.20;;;;;;4906133;29;20479;-83
2021/12/07 13:09:19;;;;;;;4.10;3.13;;;14.10;97.70;;;;;;4955681;28;20520;-78
2021/12/07 13:11:49;;;;;;;3.63;2.67;;;11.80;96.30;;;;;;4982819;28;20620;-81
2021/12/07 13:14:24;;;;;;;4.87;2.73;;;10.90;96.40;;;;;;4983730;28;20284;-79
2021/12/07 13:16:52;;;;;;;6.93;3.70;;;11.70;94.10;;;;;;4980488;28;20522;-79
2021/12/07 13:19:19;;;;;;;3.00;2.35;;;10.50;95.30;;;;;;4978721;28;20651;-79
2021/12/07 13:21:47;;;;;;;2.50;2.30;;;10.50;94.60;;;;;;4963158;28;20726;-81
2021/12/07 13:24:40;;;;;;;7.00;3.00;;;10.70;96.30;;;;;;4968272;28;20432;-81
2021/12/07 13:27:14;;;;;;;9.23;3.07;;;10.90;95.70;;;;;;4974890;28;20537;-79
2021/12/07 13:29:51;;;;;;;5.15;2.55;;;10.80;94.10;;;;;;4986822;28;20397;-80
2021/12/07 13:32:17;;;;;;;4.73;2.90;;;10.30;95.40;;;;;;4962775;28;20729;-82
2021/12/07 13:34:43;;;;;;;5.20;2.93;;;10.20;96.00;;;;;;4995135;28;20540;-82
2021/12/07 13:37:13;;;;;;;3.15;2.85;;;9.70;97.50;;;;;;4981770;28;21170;-81
2021/12/07 13:39:50;;;;;;;3.70;1.87;;;9.60;97.80;;;;;;4632439;28;10000025;-81
2021/12/07 13:42:16;;;;;;;4.50;2.60;;;9.30;98.30;;;;;;4978703;28;20580;-79
2021/12/07 13:44:44;;;;;;;8.77;2.77;;;10.70;98.10;;;;;;4968256;28;20193;-81
2021/12/07 13:47:21;;;;;;;2.67;2.15;;;10.10;98.30;;;;;;4978815;28;20655;-81
2021/12/07 13:50:01;;;;;;;3.95;2.20;;;8.90;99.30;;;;;;4968856;28;20704;-83
2021/12/07 13:52:31;;;;;;;6.88;3.45;;;9.30;99.60;;;;;;4969878;28;20189;-83
2021/12/07 13:55:02;;;;;;;4.05;2.83;;;9.90;99.80;;;;;;4977303;28;20186;-81
2021/12/07 13:57:35;;;;;;;5.60;3.05;;;8.90;99.90;;;;;;4955543;28;20734;-81
2021/12/07 14:00:12;;;;;;;4.75;3.00;;;8.50;99.90;;;;;;4983960;28;20208;-82
2021/12/07 14:02:43;;;;;;;4.07;2.72;;;8.60;99.90;;;;;;4971378;28;20215;-77
2021/12/07 14:05:15;;;;;;;2.40;2.20;;;8.50;99.90;;;;;;4970188;28;20289;-80
2021/12/07 14:07:42;;;;;;;2.00;1.90;;;7.80;99.90;;;;;;4968283;28;20467;-84
2021/12/07 14:10:14;;;;;;;3.90;2.30;;;7.90;99.90;;;;;;4960307;28;20829;-83
2021/12/07 14:12:40;;;;;;;2.47;2.22;;;7.80;99.90;;;;;;4980902;28;20487;-82
2021/12/07 14:15:12;;;;;;;4.30;2.10;;;7.40;99.90;;;;;;5120862;23;20244;-81
2021/12/07 14:17:59;;;;;;;5.35;2.33;;;7.60;99.90;;;;;;4963523;28;20514;-80
2021/12/07 14:20:43;;;;;;;4.20;3.90;;;7.20;99.90;;;;;;4960590;28;20333;-81
2021/12/07 14:23:26;;;;;;;3.22;1.63;;;7.20;99.90;;;;;;4959502;28;20248;-81
2021/12/07 14:25:56;;;;;;;5.05;3.00;;;6.20;99.90;;;;;;4957479;28;20252;-80
2021/12/07 14:28:26;;;;;;;5.22;2.85;;;6.60;99.90;;;;;;4951893;28;20205;-80
2021/12/07 14:30:55;;;;;;;6.82;2.50;;;6.30;99.90;;;;;;4953290;28;20194;-77
2021/12/07 14:33:21;;;;;;;3.25;2.63;;;6.50;99.90;;;;;;4956016;28;20542;-79
2021/12/07 14:35:47;;;;;;;6.35;2.22;;;7.30;99.90;;;;;;4952281;28;20202;-80
2021/12/07 14:38:13;;;;;;;6.00;2.70;;;6.00;99.90;;;;;;4951571;28;20249;-79
2021/12/07 14:40:43;;;;;;;2.67;2.47;;;6.20;99.90;;;;;;4955361;28;20181;-78
2021/12/07 14:43:08;;;;;;;8.23;2.75;;;6.20;99.90;;;;;;4957383;28;20671;-78
2021/12/07 14:45:34;;;;;;;4.23;2.00;;;6.00;99.90;;;;;;4956436;28;20201;-80
2021/12/07 14:48:00;;;;;;;2.83;2.50;;;6.80;99.90;;;;;;4958070;28;20221;-79
2021/12/07 14:50:25;;;;;;;4.90;2.20;;;5.70;99.90;;;;;;4959411;28;20187;-78
2021/12/07 14:52:52;;;;;;;3.50;1.90;;;6.00;99.90;;;;;;4959096;28;20644;-79